Aviation Digital Data Service (ADDS)

Output produced by METARs form (1309 UTC 21 February 2018)
found at http://www.aviationweather.gov/adds/metars/
 
TAF KBAB 201104Z 2011/2117 VRB06KT 9999 SKC QNH3000INS 
     BECMG 2102/2103 VRB06KT 9999 BKN110 QNH2972INS 
     BECMG 2111/2112 16009KT 9999 BKN100 QNH2975INS TX09/2023Z TNM03/2014Z
       
TAF AMD KBAD 201200Z 2012/2116 18009KT 9999 FEW020 510102 QNH2996INS 
     BECMG 2014/2015 18015G25KT 9999 SCT030 QNH2998INS 
     TEMPO 2015/2018 18015G35KT 
     BECMG 2021/2022 18009KT 9999 BKN025 OVC040 510102 QNH2998INS 
     BECMG 2101/2102 18009KT 9999 BKN015 510102 QNH3002INS 
     BECMG 2104/2105 18009KT 9999 OVC006 510102 QNH3008INS 
     BECMG 2111/2112 24004KT 9000 -SHRA OVC006 QNH3012INS 
     BECMG 2115/2116 32004KT 8000 -SHRA OVC006 QNH3019INS TX27/2022Z TN19/2012Z
       
KBDL 201406Z 2014/2118 20007KT 5SM BR BKN008 BKN080 
     FM201600 19011KT P6SM SCT008 BKN060 
     FM210000 20009KT 6SM BR SCT050 
     FM210400 19006KT 3SM BR BKN020 
     FM210600 20005KT 1SM BR BKN008 
     FM210700 20005KT 1/2SM FG BKN003 
     FM211100 20005KT 2SM BR BKN020 
     FM211300 20005KT 3SM BR BKN015 
     FM211400 20006KT P6SM SCT015
       
KBDR 211306Z 2113/2212 21010KT 1/2SM FG BKN002 
     TEMPO 2113/2114 1/4SM FG VV001 
     FM211500 22009KT 3SM BR BKN007 
     FM211700 22010KT 6SM BR SCT015 SCT035 
     FM211800 22010KT P6SM SCT035 BKN250 
     FM212100 20007KT P6SM SCT035 BKN100 
     FM220300 34010G16KT P6SM VCSH BKN035 
     FM220500 31006KT P6SM BKN040
       
TAF KBIF 2014/2120 25025G35KT 9999 BKN035 620351 530009 QNH2989INS 
     BECMG 2016/2017 26012G18KT 9999 BKN040 620402 QNH2990INS 
     TEMPO 2018/2024 27015G25KT 520009 
     BECMG 2102/2103 33009KT 9999 FEW050 QNH2997INS 
     BECMG 2106/2107 VRB06KT 9999 FEW040 QNH3000INS TX14/2021Z TN06/2113Z
       
TAF AMD KBIX 211249Z 2112/2216 13009KT 1000 BR OVC002 510051 QNH3020INS 
     TEMPO 2112/2116 OVC001 
     BECMG 2116/2117 13012KT 9999 NSW BKN010 510051 QNH3022INS 
     BECMG 2119/2120 13012G20KT 9999 BKN008 QNH2023INS 
     BECMG 2123/2124 14009KT 8000 BR OVC006 510051 QNH3025INS 
     BECMG 2202/2203 14009KT 3200 BR OVC001 510051 QNH3031INS TX23/2120Z TN19/2207Z
       
TAF KBKF 200903Z 2009/2115 04009KT 9999 -SN SCT015 BKN030 620305 QNH2975INS 
     BECMG 2017/2018 07009KT 9999 NSW SCT020 QNH2990INS 
     BECMG 2023/2024 07009KT 8000 -SN OVC050 620506 QNH2996INS 
     BECMG 2104/2105 18009KT 9999 NSW SCT040 QNH3010INS 
     BECMG 2111/2112 21009KT 9999 SKC QNH3016INS TXM02/2023Z TNM18/2015Z
       
TAF AMD KBLV 211235Z 2112/2214 34012KT 8000 -FZRA BKN008 OVC020 690001 620807 QNH3026INS 
     BECMG 2113/2114 35012G18KT 9999 NSW SCT006 BKN009 OVC120 620203 QNH3046INS 
     BECMG 2121/2123 35012KT 8000 -SHRA SCT010 BKN020 OVC040 610659 QNH3045INS 
     BECMG 2202/2203 02012KT 8000 -SHRA BKN005 BKN010 OVC020 610709 QNH3042INS 
     BECMG 2205/2206 02009KT 9999 NSW SCT005 BKN010 OVC020 620903 QNH3040INS TX01/2208Z TNM02/2115Z
       
KBOS 201402Z 2014/2118 23011KT P6SM SCT010 BKN100 
     FM201900 24011G23KT P6SM SCT045 
     FM202300 23010G17KT P6SM BKN045 
     FM210200 22008KT P6SM BKN015 WS020/25040KT 
     FM210600 23009KT 6SM BR SCT003 BKN008 WS020/25040KT 
     FM211300 23009KT P6SM BKN010 
     FM211500 23012G23KT P6SM SCT015
       
KBWI 201458Z 2015/2118 22007KT P6SM SCT015 
     FM201700 21010KT P6SM SCT200 
     FM210600 21005KT 6SM BR BKN008 
     FM211400 22008KT P6SM SCT020
       
KBZN 201120Z 2012/2118 VRB03KT P6SM BKN060 
     FM201400 VRB03KT P6SM SCT120